sensor_id;sensor_type;location;lat;lon;timestamp;P1;durP1;ratioP1;P2;durP2;ratioP2
43319;SDS011;28914;48.722;9.332;2023-03-20T00:01:44;7.63;;;5.77;;
43319;SDS011;28914;48.722;9.332;2023-03-20T00:07:05;7.47;;;6.90;;
43319;SDS011;28914;48.722;9.332;2023-03-20T00:12:28;7.43;;;6.73;;
43319;SDS011;28914;48.722;9.332;2023-03-20T00:17:47;7.77;;;7.07;;
43319;SDS011;28914;48.722;9.332;2023-03-20T00:23:06;4.90;;;4.50;;
43319;SDS011;28914;48.722;9.332;2023-03-20T00:28:28;6.30;;;4.27;;
43319;SDS011;28914;48.722;9.332;2023-03-20T00:33:48;3.20;;;3.00;;
43319;SDS011;28914;48.722;9.332;2023-03-20T00:39:08;4.70;;;4.30;;
43319;SDS011;28914;48.722;9.332;2023-03-20T00:44:37;3.70;;;3.40;;
43319;SDS011;28914;48.722;9.332;2023-03-20T00:50:01;3.87;;;2.97;;
43319;SDS011;28914;48.722;9.332;2023-03-20T00:55:21;3.80;;;2.87;;
43319;SDS011;28914;48.722;9.332;2023-03-20T01:00:43;2.60;;;2.33;;
43319;SDS011;28914;48.722;9.332;2023-03-20T01:06:03;3.23;;;2.90;;
43319;SDS011;28914;48.722;9.332;2023-03-20T01:11:23;3.37;;;3.07;;
43319;SDS011;28914;48.722;9.332;2023-03-20T01:16:42;3.23;;;2.93;;
43319;SDS011;28914;48.722;9.332;2023-03-20T01:22:01;2.90;;;2.63;;
43319;SDS011;28914;48.722;9.332;2023-03-20T01:27:21;2.23;;;2.03;;
43319;SDS011;28914;48.722;9.332;2023-03-20T01:32:41;3.27;;;2.10;;
43319;SDS011;28914;48.722;9.332;2023-03-20T01:38:01;1.77;;;1.50;;
43319;SDS011;28914;48.722;9.332;2023-03-20T01:43:20;2.00;;;1.63;;
43319;SDS011;28914;48.722;9.332;2023-03-20T01:54:12;1.90;;;1.77;;
43319;SDS011;28914;48.722;9.332;2023-03-20T01:59:55;1.90;;;1.40;;
43319;SDS011;28914;48.722;9.332;2023-03-20T02:05:19;1.70;;;1.50;;
43319;SDS011;28914;48.722;9.332;2023-03-20T02:10:40;2.17;;;1.87;;
43319;SDS011;28914;48.722;9.332;2023-03-20T02:16:04;3.90;;;2.10;;
43319;SDS011;28914;48.722;9.332;2023-03-20T02:21:51;2.10;;;1.90;;
43319;SDS011;28914;48.722;9.332;2023-03-20T02:27:37;2.10;;;1.90;;
43319;SDS011;28914;48.722;9.332;2023-03-20T02:33:11;1.53;;;1.43;;
43319;SDS011;28914;48.722;9.332;2023-03-20T02:44:43;1.50;;;1.37;;
43319;SDS011;28914;48.722;9.332;2023-03-20T02:55:36;3.40;;;2.13;;
43319;SDS011;28914;48.722;9.332;2023-03-20T03:01:02;2.40;;;1.83;;
43319;SDS011;28914;48.722;9.332;2023-03-20T03:06:46;2.10;;;1.80;;
43319;SDS011;28914;48.722;9.332;2023-03-20T03:12:11;1.90;;;1.70;;
43319;SDS011;28914;48.722;9.332;2023-03-20T03:17:41;1.80;;;1.60;;
43319;SDS011;28914;48.722;9.332;2023-03-20T03:23:03;2.20;;;1.77;;
43319;SDS011;28914;48.722;9.332;2023-03-20T03:28:31;2.10;;;1.83;;
43319;SDS011;28914;48.722;9.332;2023-03-20T03:33:59;3.03;;;1.90;;
43319;SDS011;28914;48.722;9.332;2023-03-20T03:39:32;2.23;;;2.03;;
43319;SDS011;28914;48.722;9.332;2023-03-20T03:45:08;1.93;;;1.63;;
43319;SDS011;28914;48.722;9.332;2023-03-20T03:50:39;2.13;;;1.93;;
43319;SDS011;28914;48.722;9.332;2023-03-20T03:56:07;1.60;;;1.40;;
43319;SDS011;28914;48.722;9.332;2023-03-20T04:01:30;2.30;;;1.87;;
43319;SDS011;28914;48.722;9.332;2023-03-20T04:06:53;1.80;;;1.63;;
43319;SDS011;28914;48.722;9.332;2023-03-20T04:12:32;1.73;;;1.50;;
43319;SDS011;28914;48.722;9.332;2023-03-20T04:17:55;1.90;;;1.60;;
43319;SDS011;28914;48.722;9.332;2023-03-20T04:23:14;1.93;;;1.30;;
43319;SDS011;28914;48.722;9.332;2023-03-20T04:28:33;1.53;;;1.27;;
43319;SDS011;28914;48.722;9.332;2023-03-20T04:33:53;3.43;;;1.30;;
43319;SDS011;28914;48.722;9.332;2023-03-20T04:39:12;1.73;;;1.10;;
43319;SDS011;28914;48.722;9.332;2023-03-20T04:44:31;1.17;;;0.93;;
43319;SDS011;28914;48.722;9.332;2023-03-20T04:49:51;1.50;;;0.80;;
43319;SDS011;28914;48.722;9.332;2023-03-20T04:55:10;1.20;;;0.90;;
43319;SDS011;28914;48.722;9.332;2023-03-20T05:00:29;1.53;;;1.27;;
43319;SDS011;28914;48.722;9.332;2023-03-20T05:05:48;1.80;;;1.30;;
43319;SDS011;28914;48.722;9.332;2023-03-20T05:11:07;1.40;;;1.23;;
43319;SDS011;28914;48.722;9.332;2023-03-20T05:16:27;1.50;;;1.10;;
43319;SDS011;28914;48.722;9.332;2023-03-20T05:21:46;1.40;;;1.07;;
43319;SDS011;28914;48.722;9.332;2023-03-20T05:27:06;2.63;;;1.10;;
43319;SDS011;28914;48.722;9.332;2023-03-20T05:32:25;1.87;;;0.90;;
43319;SDS011;28914;48.722;9.332;2023-03-20T05:37:44;1.97;;;1.03;;
43319;SDS011;28914;48.722;9.332;2023-03-20T05:43:04;2.10;;;1.37;;
43319;SDS011;28914;48.722;9.332;2023-03-20T05:48:23;1.67;;;0.90;;
43319;SDS011;28914;48.722;9.332;2023-03-20T05:53:42;1.90;;;1.40;;
43319;SDS011;28914;48.722;9.332;2023-03-20T05:59:01;1.77;;;1.33;;
43319;SDS011;28914;48.722;9.332;2023-03-20T06:04:20;1.40;;;1.30;;
43319;SDS011;28914;48.722;9.332;2023-03-20T06:09:39;1.40;;;1.10;;
43319;SDS011;28914;48.722;9.332;2023-03-20T06:14:59;1.70;;;0.87;;
43319;SDS011;28914;48.722;9.332;2023-03-20T06:20:18;2.50;;;1.40;;
43319;SDS011;28914;48.722;9.332;2023-03-20T06:25:37;2.40;;;1.67;;
43319;SDS011;28914;48.722;9.332;2023-03-20T06:30:57;1.93;;;1.43;;
43319;SDS011;28914;48.722;9.332;2023-03-20T06:36:16;2.27;;;1.70;;
43319;SDS011;28914;48.722;9.332;2023-03-20T06:41:35;3.27;;;1.93;;
43319;SDS011;28914;48.722;9.332;2023-03-20T06:46:54;2.70;;;2.30;;
43319;SDS011;28914;48.722;9.332;2023-03-20T06:52:15;3.40;;;2.10;;
43319;SDS011;28914;48.722;9.332;2023-03-20T06:57:35;2.17;;;1.50;;
43319;SDS011;28914;48.722;9.332;2023-03-20T07:02:54;1.50;;;1.10;;
43319;SDS011;28914;48.722;9.332;2023-03-20T07:08:13;1.57;;;1.47;;
43319;SDS011;28914;48.722;9.332;2023-03-20T07:13:33;2.70;;;1.30;;
43319;SDS011;28914;48.722;9.332;2023-03-20T07:18:52;3.40;;;3.20;;
43319;SDS011;28914;48.722;9.332;2023-03-20T07:24:11;1.67;;;1.57;;
43319;SDS011;28914;48.722;9.332;2023-03-20T07:29:32;1.83;;;1.27;;
43319;SDS011;28914;48.722;9.332;2023-03-20T07:34:51;1.47;;;1.30;;
43319;SDS011;28914;48.722;9.332;2023-03-20T07:40:10;1.50;;;1.30;;
43319;SDS011;28914;48.722;9.332;2023-03-20T07:45:30;2.03;;;1.80;;
43319;SDS011;28914;48.722;9.332;2023-03-20T07:50:50;1.67;;;1.57;;
43319;SDS011;28914;48.722;9.332;2023-03-20T07:56:09;1.53;;;1.10;;
43319;SDS011;28914;48.722;9.332;2023-03-20T08:01:28;2.87;;;1.87;;
43319;SDS011;28914;48.722;9.332;2023-03-20T08:06:48;2.13;;;1.70;;
43319;SDS011;28914;48.722;9.332;2023-03-20T08:12:08;1.40;;;1.30;;
43319;SDS011;28914;48.722;9.332;2023-03-20T08:17:27;1.40;;;1.10;;
43319;SDS011;28914;48.722;9.332;2023-03-20T08:22:46;4.00;;;2.40;;
43319;SDS011;28914;48.722;9.332;2023-03-20T08:28:07;3.80;;;3.10;;
43319;SDS011;28914;48.722;9.332;2023-03-20T08:33:26;2.37;;;1.60;;
43319;SDS011;28914;48.722;9.332;2023-03-20T08:38:46;1.33;;;0.83;;
43319;SDS011;28914;48.722;9.332;2023-03-20T08:44:06;1.50;;;1.10;;
43319;SDS011;28914;48.722;9.332;2023-03-20T08:49:26;1.10;;;0.80;;
43319;SDS011;28914;48.722;9.332;2023-03-20T08:54:45;1.33;;;0.90;;
43319;SDS011;28914;48.722;9.332;2023-03-20T09:00:05;1.13;;;0.73;;
43319;SDS011;28914;48.722;9.332;2023-03-20T09:05:26;1.50;;;0.80;;
43319;SDS011;28914;48.722;9.332;2023-03-20T09:10:46;1.47;;;0.80;;
43319;SDS011;28914;48.722;9.332;2023-03-20T09:16:06;1.23;;;0.83;;
43319;SDS011;28914;48.722;9.332;2023-03-20T09:21:26;1.10;;;0.80;;
43319;SDS011;28914;48.722;9.332;2023-03-20T09:26:45;1.50;;;0.90;;
43319;SDS011;28914;48.722;9.332;2023-03-20T09:32:04;1.30;;;1.13;;
43319;SDS011;28914;48.722;9.332;2023-03-20T09:37:23;1.10;;;0.73;;
43319;SDS011;28914;48.722;9.332;2023-03-20T09:42:46;1.10;;;0.87;;
43319;SDS011;28914;48.722;9.332;2023-03-20T09:48:11;1.37;;;0.90;;
43319;SDS011;28914;48.722;9.332;2023-03-20T09:53:46;2.40;;;0.80;;
43319;SDS011;28914;48.722;9.332;2023-03-20T09:59:10;0.97;;;0.73;;
43319;SDS011;28914;48.722;9.332;2023-03-20T10:04:33;1.53;;;0.80;;
43319;SDS011;28914;48.722;9.332;2023-03-20T10:09:54;0.97;;;0.70;;
43319;SDS011;28914;48.722;9.332;2023-03-20T10:20:43;1.10;;;0.70;;
43319;SDS011;28914;48.722;9.332;2023-03-20T10:26:12;1.40;;;0.90;;
43319;SDS011;28914;48.722;9.332;2023-03-20T10:37:03;1.10;;;0.80;;
43319;SDS011;28914;48.722;9.332;2023-03-20T10:42:48;1.93;;;1.07;;
43319;SDS011;28914;48.722;9.332;2023-03-20T10:48:21;1.20;;;0.77;;
43319;SDS011;28914;48.722;9.332;2023-03-20T10:53:56;1.77;;;0.80;;
43319;SDS011;28914;48.722;9.332;2023-03-20T10:59:23;1.80;;;0.80;;
43319;SDS011;28914;48.722;9.332;2023-03-20T11:05:00;1.00;;;0.70;;
43319;SDS011;28914;48.722;9.332;2023-03-20T11:10:28;1.00;;;0.70;;
43319;SDS011;28914;48.722;9.332;2023-03-20T11:15:51;1.30;;;0.80;;
43319;SDS011;28914;48.722;9.332;2023-03-20T11:21:29;1.20;;;0.70;;
43319;SDS011;28914;48.722;9.332;2023-03-20T11:26:49;1.10;;;0.70;;
43319;SDS011;28914;48.722;9.332;2023-03-20T11:37:48;1.50;;;1.00;;
43319;SDS011;28914;48.722;9.332;2023-03-20T11:43:11;1.63;;;0.77;;
43319;SDS011;28914;48.722;9.332;2023-03-20T11:48:36;1.50;;;0.90;;
43319;SDS011;28914;48.722;9.332;2023-03-20T11:53:59;2.73;;;1.60;;
43319;SDS011;28914;48.722;9.332;2023-03-20T11:59:21;1.83;;;1.40;;
43319;SDS011;28914;48.722;9.332;2023-03-20T12:04:43;1.10;;;1.00;;
43319;SDS011;28914;48.722;9.332;2023-03-20T12:10:06;2.40;;;1.57;;
43319;SDS011;28914;48.722;9.332;2023-03-20T12:15:30;2.40;;;1.80;;
43319;SDS011;28914;48.722;9.332;2023-03-20T12:21:07;2.10;;;1.90;;
43319;SDS011;28914;48.722;9.332;2023-03-20T12:26:35;2.27;;;1.97;;
43319;SDS011;28914;48.722;9.332;2023-03-20T12:31:58;3.87;;;2.43;;
43319;SDS011;28914;48.722;9.332;2023-03-20T12:37:26;2.90;;;2.60;;
43319;SDS011;28914;48.722;9.332;2023-03-20T12:42:50;2.83;;;2.63;;
43319;SDS011;28914;48.722;9.332;2023-03-20T12:59:53;4.93;;;3.40;;
43319;SDS011;28914;48.722;9.332;2023-03-20T13:16:41;2.90;;;2.23;;
43319;SDS011;28914;48.722;9.332;2023-03-20T13:22:05;2.23;;;2.03;;
43319;SDS011;28914;48.722;9.332;2023-03-20T13:27:30;3.00;;;2.37;;
43319;SDS011;28914;48.722;9.332;2023-03-20T13:38:33;3.40;;;2.00;;
43319;SDS011;28914;48.722;9.332;2023-03-20T13:43:56;1.70;;;1.50;;
43319;SDS011;28914;48.722;9.332;2023-03-20T13:49:23;2.50;;;1.77;;
43319;SDS011;28914;48.722;9.332;2023-03-20T14:06:44;1.70;;;1.60;;
43319;SDS011;28914;48.722;9.332;2023-03-20T14:12:10;1.60;;;1.30;;
43319;SDS011;28914;48.722;9.332;2023-03-20T14:17:31;2.70;;;2.17;;
43319;SDS011;28914;48.722;9.332;2023-03-20T14:22:50;2.70;;;1.90;;
43319;SDS011;28914;48.722;9.332;2023-03-20T14:33:31;2.23;;;1.50;;
43319;SDS011;28914;48.722;9.332;2023-03-20T14:39:13;3.67;;;1.83;;
43319;SDS011;28914;48.722;9.332;2023-03-20T14:56:05;2.83;;;1.90;;
43319;SDS011;28914;48.722;9.332;2023-03-20T15:01:33;1.70;;;1.60;;
43319;SDS011;28914;48.722;9.332;2023-03-20T15:07:15;2.10;;;1.87;;
43319;SDS011;28914;48.722;9.332;2023-03-20T15:12:39;3.53;;;2.70;;
43319;SDS011;28914;48.722;9.332;2023-03-20T15:18:02;2.10;;;1.63;;
43319;SDS011;28914;48.722;9.332;2023-03-20T15:23:29;2.97;;;1.70;;
43319;SDS011;28914;48.722;9.332;2023-03-20T15:28:48;2.03;;;1.80;;
43319;SDS011;28914;48.722;9.332;2023-03-20T15:34:19;2.40;;;1.57;;
43319;SDS011;28914;48.722;9.332;2023-03-20T15:39:44;2.00;;;1.60;;
43319;SDS011;28914;48.722;9.332;2023-03-20T15:45:20;2.67;;;1.70;;
43319;SDS011;28914;48.722;9.332;2023-03-20T15:50:50;2.53;;;1.83;;
43319;SDS011;28914;48.722;9.332;2023-03-20T15:56:16;2.50;;;1.40;;
43319;SDS011;28914;48.722;9.332;2023-03-20T16:01:37;2.87;;;2.67;;
43319;SDS011;28914;48.722;9.332;2023-03-20T16:06:57;2.67;;;2.47;;
43319;SDS011;28914;48.722;9.332;2023-03-20T16:12:18;2.00;;;1.70;;
43319;SDS011;28914;48.722;9.332;2023-03-20T16:17:37;2.37;;;1.50;;
43319;SDS011;28914;48.722;9.332;2023-03-20T16:23:01;2.10;;;1.70;;
43319;SDS011;28914;48.722;9.332;2023-03-20T16:28:24;2.33;;;1.80;;
43319;SDS011;28914;48.722;9.332;2023-03-20T16:33:45;3.10;;;2.80;;
43319;SDS011;28914;48.722;9.332;2023-03-20T16:39:15;8.50;;;3.47;;
43319;SDS011;28914;48.722;9.332;2023-03-20T16:44:39;3.80;;;2.50;;
43319;SDS011;28914;48.722;9.332;2023-03-20T16:50:03;2.07;;;1.67;;
43319;SDS011;28914;48.722;9.332;2023-03-20T16:55:32;1.93;;;1.07;;
43319;SDS011;28914;48.722;9.332;2023-03-20T17:00:59;1.30;;;1.00;;
43319;SDS011;28914;48.722;9.332;2023-03-20T17:11:43;1.53;;;1.03;;
43319;SDS011;28914;48.722;9.332;2023-03-20T17:17:10;1.80;;;1.30;;
43319;SDS011;28914;48.722;9.332;2023-03-20T17:22:33;1.23;;;0.90;;
43319;SDS011;28914;48.722;9.332;2023-03-20T17:27:53;1.40;;;1.10;;
43319;SDS011;28914;48.722;9.332;2023-03-20T17:33:12;2.00;;;1.23;;
43319;SDS011;28914;48.722;9.332;2023-03-20T17:38:33;1.93;;;1.73;;
43319;SDS011;28914;48.722;9.332;2023-03-20T17:43:53;3.30;;;2.90;;
43319;SDS011;28914;48.722;9.332;2023-03-20T17:49:15;1.90;;;1.60;;
43319;SDS011;28914;48.722;9.332;2023-03-20T17:54:37;2.67;;;2.13;;
43319;SDS011;28914;48.722;9.332;2023-03-20T17:59:56;5.93;;;5.40;;
43319;SDS011;28914;48.722;9.332;2023-03-20T18:05:15;8.80;;;8.10;;
43319;SDS011;28914;48.722;9.332;2023-03-20T18:10:35;3.23;;;2.93;;
43319;SDS011;28914;48.722;9.332;2023-03-20T18:15:56;4.40;;;2.43;;
43319;SDS011;28914;48.722;9.332;2023-03-20T18:21:16;2.50;;;1.70;;
43319;SDS011;28914;48.722;9.332;2023-03-20T18:26:35;2.80;;;1.80;;
43319;SDS011;28914;48.722;9.332;2023-03-20T18:31:54;2.70;;;1.60;;
43319;SDS011;28914;48.722;9.332;2023-03-20T18:37:13;2.33;;;1.40;;
43319;SDS011;28914;48.722;9.332;2023-03-20T18:42:33;2.13;;;1.50;;
43319;SDS011;28914;48.722;9.332;2023-03-20T18:47:52;2.17;;;1.50;;
43319;SDS011;28914;48.722;9.332;2023-03-20T18:53:12;3.47;;;2.17;;
43319;SDS011;28914;48.722;9.332;2023-03-20T18:58:31;2.57;;;2.20;;
43319;SDS011;28914;48.722;9.332;2023-03-20T19:03:50;2.87;;;2.00;;
43319;SDS011;28914;48.722;9.332;2023-03-20T19:09:11;4.93;;;3.67;;
43319;SDS011;28914;48.722;9.332;2023-03-20T19:14:30;6.10;;;3.10;;
43319;SDS011;28914;48.722;9.332;2023-03-20T19:19:49;2.40;;;2.07;;
43319;SDS011;28914;48.722;9.332;2023-03-20T19:25:09;2.20;;;2.00;;
43319;SDS011;28914;48.722;9.332;2023-03-20T19:35:50;4.50;;;2.40;;
43319;SDS011;28914;48.722;9.332;2023-03-20T19:41:09;5.20;;;2.80;;
43319;SDS011;28914;48.722;9.332;2023-03-20T19:46:29;4.37;;;2.83;;
43319;SDS011;28914;48.722;9.332;2023-03-20T19:51:48;4.53;;;2.80;;
43319;SDS011;28914;48.722;9.332;2023-03-20T19:57:07;3.93;;;2.27;;
43319;SDS011;28914;48.722;9.332;2023-03-20T20:02:26;4.57;;;2.13;;
43319;SDS011;28914;48.722;9.332;2023-03-20T20:07:45;3.63;;;2.90;;
43319;SDS011;28914;48.722;9.332;2023-03-20T20:13:05;3.00;;;2.50;;
43319;SDS011;28914;48.722;9.332;2023-03-20T20:18:24;4.83;;;4.20;;
43319;SDS011;28914;48.722;9.332;2023-03-20T20:23:44;5.10;;;2.97;;
43319;SDS011;28914;48.722;9.332;2023-03-20T20:29:04;3.27;;;2.53;;
43319;SDS011;28914;48.722;9.332;2023-03-20T20:34:23;3.30;;;2.97;;
43319;SDS011;28914;48.722;9.332;2023-03-20T20:39:42;4.00;;;3.07;;
43319;SDS011;28914;48.722;9.332;2023-03-20T20:45:06;4.27;;;3.30;;
43319;SDS011;28914;48.722;9.332;2023-03-20T20:50:29;4.20;;;3.20;;
43319;SDS011;28914;48.722;9.332;2023-03-20T20:55:49;4.70;;;4.10;;
43319;SDS011;28914;48.722;9.332;2023-03-20T21:01:08;4.10;;;3.70;;
43319;SDS011;28914;48.722;9.332;2023-03-20T21:06:28;3.20;;;3.00;;
43319;SDS011;28914;48.722;9.332;2023-03-20T21:11:47;2.73;;;2.53;;
43319;SDS011;28914;48.722;9.332;2023-03-20T21:17:07;3.37;;;2.80;;
43319;SDS011;28914;48.722;9.332;2023-03-20T21:22:27;2.50;;;2.03;;
43319;SDS011;28914;48.722;9.332;2023-03-20T21:27:46;3.80;;;3.40;;
43319;SDS011;28914;48.722;9.332;2023-03-20T21:33:06;3.23;;;2.93;;
43319;SDS011;28914;48.722;9.332;2023-03-20T21:38:25;3.37;;;3.07;;
43319;SDS011;28914;48.722;9.332;2023-03-20T21:43:44;3.67;;;2.80;;
43319;SDS011;28914;48.722;9.332;2023-03-20T21:49:04;4.03;;;2.80;;
43319;SDS011;28914;48.722;9.332;2023-03-20T21:54:24;3.50;;;2.70;;
43319;SDS011;28914;48.722;9.332;2023-03-20T21:59:44;4.00;;;3.10;;
43319;SDS011;28914;48.722;9.332;2023-03-20T22:05:03;4.43;;;2.90;;
43319;SDS011;28914;48.722;9.332;2023-03-20T22:10:23;4.33;;;2.60;;
43319;SDS011;28914;48.722;9.332;2023-03-20T22:15:42;3.60;;;2.70;;
43319;SDS011;28914;48.722;9.332;2023-03-20T22:21:01;3.30;;;2.33;;
43319;SDS011;28914;48.722;9.332;2023-03-20T22:26:21;2.93;;;2.30;;
43319;SDS011;28914;48.722;9.332;2023-03-20T22:31:40;3.33;;;2.53;;
43319;SDS011;28914;48.722;9.332;2023-03-20T22:37:06;2.47;;;2.27;;
43319;SDS011;28914;48.722;9.332;2023-03-20T22:42:25;2.63;;;1.93;;
43319;SDS011;28914;48.722;9.332;2023-03-20T22:47:44;3.30;;;2.80;;
43319;SDS011;28914;48.722;9.332;2023-03-20T22:53:04;3.13;;;2.33;;
43319;SDS011;28914;48.722;9.332;2023-03-20T22:58:23;3.00;;;2.20;;
43319;SDS011;28914;48.722;9.332;2023-03-20T23:03:43;3.20;;;2.20;;
43319;SDS011;28914;48.722;9.332;2023-03-20T23:09:02;2.40;;;2.07;;
43319;SDS011;28914;48.722;9.332;2023-03-20T23:14:22;3.20;;;3.00;;
43319;SDS011;28914;48.722;9.332;2023-03-20T23:19:41;3.67;;;2.80;;
43319;SDS011;28914;48.722;9.332;2023-03-20T23:25:00;3.07;;;2.80;;
43319;SDS011;28914;48.722;9.332;2023-03-20T23:30:20;6.77;;;3.50;;
43319;SDS011;28914;48.722;9.332;2023-03-20T23:35:39;5.93;;;5.20;;
43319;SDS011;28914;48.722;9.332;2023-03-20T23:40:58;5.27;;;4.77;;
43319;SDS011;28914;48.722;9.332;2023-03-20T23:46:18;2.50;;;2.30;;
43319;SDS011;28914;48.722;9.332;2023-03-20T23:51:37;3.13;;;2.83;;
43319;SDS011;28914;48.722;9.332;2023-03-20T23:56:57;3.00;;;2.47;;
